createdAt,value
2019-01-11T00:01:39.176Z,3.00
2019-01-11T00:04:32.235Z,2.80
2019-01-11T00:07:26.071Z,3.35
2019-01-11T00:10:19.624Z,3.33
2019-01-11T00:13:12.425Z,3.55
2019-01-11T00:16:08.294Z,3.17
2019-01-11T00:18:57.515Z,2.67
2019-01-11T00:21:51.079Z,2.85
2019-01-11T00:24:43.878Z,3.87
2019-01-11T00:27:36.935Z,2.52
2019-01-11T00:30:30.760Z,2.72
2019-01-11T00:33:23.563Z,3.10
2019-01-11T00:36:16.618Z,2.90
2019-01-11T00:39:20.938Z,3.00
2019-01-11T00:42:13.747Z,2.58
2019-01-11T00:45:06.798Z,4.28
2019-01-11T00:47:59.849Z,3.02
2019-01-11T00:50:53.928Z,4.20
2019-01-11T00:53:46.982Z,2.70
2019-01-11T00:56:39.783Z,2.60
2019-01-11T00:59:32.583Z,3.15
2019-01-11T01:02:25.639Z,2.80
2019-01-11T01:05:14.599Z,3.72
2019-01-11T01:08:11.239Z,2.85
2019-01-11T01:11:04.295Z,3.25
2019-01-11T01:13:57.352Z,4.17
2019-01-11T01:16:51.176Z,4.47
2019-01-11T01:19:43.974Z,2.35
2019-01-11T01:22:37.802Z,3.70
2019-01-11T01:25:30.600Z,3.55
2019-01-11T01:28:23.398Z,3.62
2019-01-11T01:31:16.455Z,2.98
2019-01-11T01:34:09.510Z,2.20
2019-01-11T01:37:02.312Z,2.30
2019-01-11T01:39:55.204Z,4.33
2019-01-11T01:42:47.912Z,3.52
2019-01-11T01:45:40.972Z,3.45
2019-01-11T01:48:34.286Z,4.12
2019-01-11T01:51:27.336Z,4.22
2019-01-11T01:54:21.157Z,3.27
2019-01-11T01:57:14.215Z,2.90
2019-01-11T02:00:07.271Z,4.17
2019-01-11T02:03:00.327Z,2.83
2019-01-11T02:05:53.383Z,2.50
2019-01-11T02:08:46.438Z,3.25
2019-01-11T02:11:42.054Z,3.40
2019-01-11T02:14:35.112Z,4.25
2019-01-11T02:17:27.912Z,4.15
2019-01-11T02:20:19.944Z,3.33
2019-01-11T02:23:13.001Z,5.20
2019-01-11T02:26:05.798Z,4.75
2019-01-11T02:28:58.605Z,5.50
2019-01-11T02:31:51.403Z,2.62
2019-01-11T02:34:40.626Z,2.20
2019-01-11T02:37:33.461Z,5.75
2019-01-11T02:40:26.472Z,7.55
2019-01-11T02:43:19.532Z,6.72
2019-01-11T02:46:13.099Z,3.65
2019-01-11T02:49:05.900Z,5.72
2019-01-11T02:51:56.624Z,3.90
2019-01-11T02:54:49.704Z,2.62
2019-01-11T02:57:42.509Z,6.58
2019-01-11T03:00:36.585Z,3.22
2019-01-11T03:03:30.412Z,4.00
2019-01-11T03:06:23.464Z,4.40
2019-01-11T03:09:16.263Z,3.50
2019-01-11T03:12:09.063Z,8.50
2019-01-11T03:15:02.382Z,7.58
2019-01-11T03:17:55.175Z,2.87
2019-01-11T03:20:48.748Z,3.27
2019-01-11T03:23:41.544Z,3.25
2019-01-11T03:26:34.603Z,4.17
2019-01-11T03:29:30.476Z,4.60
2019-01-11T03:32:23.534Z,3.87
2019-01-11T03:35:31.177Z,6.58
2019-01-11T03:38:25.256Z,3.87
2019-01-11T03:41:18.316Z,5.53
2019-01-11T03:44:11.112Z,4.45
2019-01-11T03:47:03.917Z,7.50
2019-01-11T03:49:56.711Z,7.17
2019-01-11T03:52:49.515Z,6.17
2019-01-11T03:55:38.672Z,7.92
2019-01-11T03:58:31.526Z,4.22
2019-01-11T04:01:28.169Z,5.00
2019-01-11T04:04:21.223Z,5.00
2019-01-11T04:07:14.034Z,5.50
2019-01-11T04:10:10.664Z,4.92
2019-01-11T04:13:03.727Z,6.70
2019-01-11T04:15:56.776Z,5.47
2019-01-11T04:18:51.623Z,5.83
2019-01-11T04:21:45.705Z,5.67
2019-01-11T04:24:39.016Z,5.55
2019-01-11T04:27:31.823Z,5.95
2019-01-11T04:30:21.045Z,6.15
2019-01-11T04:33:14.098Z,5.67
2019-01-11T04:36:06.891Z,7.00
2019-01-11T04:39:07.623Z,7.12
2019-01-11T04:42:00.935Z,5.87
2019-01-11T04:44:53.754Z,11.08
2019-01-11T04:47:47.818Z,5.97
2019-01-11T04:50:41.645Z,6.87
2019-01-11T04:53:34.696Z,7.05
2019-01-11T04:56:27.511Z,8.98
2019-01-11T04:59:20.303Z,6.35
2019-01-11T05:02:13.096Z,7.12
2019-01-11T05:05:05.895Z,7.78
2019-01-11T05:07:58.700Z,11.65
2019-01-11T05:10:51.757Z,9.90
2019-01-11T05:13:59.399Z,7.95
2019-01-11T05:16:52.200Z,8.20
2019-01-11T05:19:44.998Z,8.05
2019-01-11T05:22:38.059Z,12.70
2019-01-11T05:25:32.134Z,7.47
2019-01-11T05:28:25.961Z,12.93
2019-01-11T05:31:18.759Z,7.70
2019-01-11T05:34:11.562Z,9.80
2019-01-11T05:37:04.360Z,12.70
2019-01-11T05:39:58.184Z,7.05
2019-01-11T05:42:51.242Z,8.95
2019-01-11T05:45:44.297Z,7.75
2019-01-11T05:48:44.266Z,11.68
2019-01-11T05:51:38.860Z,11.20
2019-01-11T05:54:31.657Z,7.55
2019-01-11T05:57:25.742Z,10.55
2019-01-11T06:00:18.540Z,11.08
2019-01-11T06:03:11.591Z,9.75
2019-01-11T06:06:04.913Z,10.63
2019-01-11T06:08:57.721Z,6.92
2019-01-11T06:11:51.063Z,8.68
2019-01-11T06:14:43.814Z,6.65
2019-01-11T06:17:36.615Z,8.10
2019-01-11T06:20:31.722Z,10.40
2019-01-11T06:23:25.033Z,7.83
2019-01-11T06:26:17.834Z,11.03
2019-01-11T06:29:10.889Z,8.30
2019-01-11T06:32:03.700Z,8.00
2019-01-11T06:34:56.488Z,6.95
2019-01-11T06:37:49.545Z,7.15
2019-01-11T06:40:42.350Z,8.05
2019-01-11T06:43:35.148Z,7.55
2019-01-11T06:46:28.203Z,7.78
2019-01-11T06:49:21.261Z,6.45
2019-01-11T06:52:15.082Z,8.98
2019-01-11T06:55:08.135Z,5.97
2019-01-11T06:58:02.477Z,7.37
2019-01-11T07:00:56.307Z,9.70
2019-01-11T07:03:49.102Z,6.95
2019-01-11T07:06:42.424Z,5.75
2019-01-11T07:09:36.749Z,6.35
2019-01-11T07:12:29.806Z,5.50
2019-01-11T07:15:22.603Z,5.05
2019-01-11T07:18:11.953Z,5.15
2019-01-11T07:21:05.134Z,6.47
2019-01-11T07:23:57.929Z,6.00
2019-01-11T07:26:50.728Z,6.28
2019-01-11T07:29:43.786Z,8.98
2019-01-11T07:32:36.840Z,7.55
2019-01-11T07:35:30.922Z,6.10
2019-01-11T07:38:23.975Z,5.40
2019-01-11T07:41:17.037Z,5.10
2019-01-11T07:44:10.086Z,5.53
2019-01-11T07:46:59.220Z,6.97
2019-01-11T07:49:53.128Z,6.05
2019-01-11T07:52:46.446Z,7.50
2019-01-11T07:55:39.512Z,4.92
2019-01-11T07:58:28.713Z,5.10
2019-01-11T08:01:17.929Z,7.65
2019-01-11T08:04:10.733Z,4.55
2019-01-11T08:07:03.790Z,7.67
2019-01-11T08:09:57.355Z,4.53
2019-01-11T08:12:50.156Z,4.72
2019-01-11T08:15:43.465Z,6.10
2019-01-11T08:18:37.288Z,4.42
2019-01-11T08:21:30.090Z,5.00
2019-01-11T08:24:23.142Z,5.30
2019-01-11T08:27:17.226Z,6.97
2019-01-11T08:30:11.562Z,5.60
2019-01-11T08:33:04.615Z,4.50
2019-01-11T08:36:23.530Z,6.12
2019-01-11T08:39:12.491Z,5.00
2019-01-11T08:42:05.294Z,5.92
2019-01-11T08:44:58.086Z,3.60
2019-01-11T08:47:50.895Z,5.25
2019-01-11T08:50:43.948Z,4.87
2019-01-11T08:53:37.771Z,7.53
2019-01-11T08:56:30.821Z,3.70
2019-01-11T08:59:23.622Z,4.08
2019-01-11T09:02:12.877Z,4.62
2019-01-11T09:05:01.801Z,7.05
2019-01-11T09:07:55.882Z,4.47
2019-01-11T09:10:48.680Z,3.70
2019-01-11T09:13:37.687Z,3.55
2019-01-11T09:16:33.000Z,6.40
2019-01-11T09:19:26.311Z,3.35
2019-01-11T09:22:14.063Z,4.10
2019-01-11T09:25:06.792Z,4.42
2019-01-11T09:27:59.846Z,3.65
2019-01-11T09:30:52.910Z,4.20
2019-01-11T09:33:45.708Z,6.95
2019-01-11T09:36:39.019Z,6.62
2019-01-11T09:39:32.328Z,5.47
2019-01-11T09:42:21.545Z,4.60
2019-01-11T09:45:14.601Z,7.47
2019-01-11T09:48:07.655Z,4.87
2019-01-11T09:51:01.735Z,7.83
2019-01-11T09:53:55.815Z,4.40
2019-01-11T09:56:48.873Z,4.28
2019-01-11T09:59:42.954Z,4.10
2019-01-11T10:02:49.588Z,4.95
2019-01-11T10:08:47.978Z,5.03
2019-01-11T10:11:41.033Z,4.17
2019-01-11T10:14:33.839Z,5.08
2019-01-11T10:17:26.891Z,5.42
2019-01-11T10:20:19.692Z,4.55
2019-01-11T10:23:12.494Z,4.53
2019-01-11T10:26:05.288Z,5.20
2019-01-11T10:29:01.928Z,5.28
2019-01-11T10:31:55.755Z,5.70
2019-01-11T10:34:49.321Z,6.95
2019-01-11T10:37:42.123Z,6.70
2019-01-11T10:40:35.688Z,6.58
2019-01-11T10:43:28.743Z,8.28
2019-01-11T10:46:33.068Z,8.73
2019-01-11T10:49:25.869Z,6.65
2019-01-11T10:52:19.946Z,7.90
2019-01-11T10:55:13.768Z,5.62
2019-01-11T10:58:07.081Z,6.20
2019-01-11T11:00:56.392Z,5.67
2019-01-11T11:03:45.514Z,8.95
2019-01-11T11:06:38.570Z,11.00
2019-01-11T11:09:31.629Z,10.28
2019-01-11T11:12:24.425Z,7.85
2019-01-11T11:15:17.739Z,8.58
2019-01-11T11:18:11.050Z,7.83
2019-01-11T11:21:04.106Z,10.23
2019-01-11T11:23:54.043Z,10.43
2019-01-11T11:26:47.145Z,8.00
2019-01-11T11:29:39.945Z,10.78
2019-01-11T11:32:37.095Z,8.25
2019-01-11T11:35:30.156Z,10.80
2019-01-11T11:38:22.967Z,8.95
2019-01-11T11:41:23.944Z,9.23
2019-01-11T11:44:17.780Z,9.83
2019-01-11T11:47:11.085Z,10.72
2019-01-11T11:50:04.138Z,12.47
2019-01-11T11:52:57.200Z,12.18
2019-01-11T11:55:51.017Z,9.70
2019-01-11T11:58:44.328Z,8.93
2019-01-11T12:01:37.169Z,11.50
2019-01-11T12:04:30.952Z,11.30
2019-01-11T12:07:24.057Z,14.43
2019-01-11T12:10:17.066Z,11.35
2019-01-11T12:13:09.865Z,8.50
2019-01-11T12:16:02.921Z,10.28
2019-01-11T12:18:55.730Z,9.48
2019-01-11T12:21:48.526Z,11.55
2019-01-11T12:24:37.993Z,12.58
2019-01-11T12:27:32.074Z,10.23
2019-01-11T12:30:35.115Z,10.10
2019-01-11T12:33:38.666Z,12.47
2019-01-11T12:36:41.705Z,10.50
2019-01-11T12:39:44.752Z,12.05
2019-01-11T12:42:47.785Z,10.53
2019-01-11T12:45:51.082Z,8.58
2019-01-11T12:48:53.873Z,12.35
2019-01-11T12:51:57.162Z,8.85
2019-01-11T12:54:59.949Z,11.05
2019-01-11T12:58:03.499Z,8.28
2019-01-11T13:01:07.560Z,7.72
2019-01-11T13:04:10.347Z,9.28
2019-01-11T13:07:13.384Z,11.05
2019-01-11T13:10:16.168Z,9.20
2019-01-11T13:13:19.210Z,8.53
2019-01-11T13:16:22.246Z,8.75
2019-01-11T13:19:25.047Z,9.93
2019-01-11T13:22:28.328Z,8.38
2019-01-11T13:25:32.149Z,8.38
2019-01-11T13:28:31.847Z,8.58
2019-01-11T13:31:34.888Z,6.62
2019-01-11T13:34:37.674Z,9.63
2019-01-11T13:37:40.715Z,9.58
2019-01-11T13:40:43.753Z,9.03
2019-01-11T13:43:47.817Z,6.65
2019-01-11T13:46:48.039Z,8.48
2019-01-11T13:49:51.081Z,8.40
2019-01-11T13:52:54.122Z,7.30
2019-01-11T13:55:57.170Z,7.00
2019-01-11T13:59:00.462Z,6.42
2019-01-11T14:02:03.497Z,6.80
2019-01-11T14:05:06.797Z,6.53
2019-01-11T14:08:10.090Z,6.95
2019-01-11T14:11:13.386Z,6.37
2019-01-11T14:14:16.427Z,6.75
2019-01-11T14:17:20.744Z,5.70
2019-01-11T14:20:24.811Z,5.72
2019-01-11T14:23:27.864Z,6.28
2019-01-11T14:26:31.664Z,8.30
2019-01-11T14:29:34.951Z,6.33
2019-01-11T14:32:38.248Z,8.50
2019-01-11T14:35:41.291Z,5.83
2019-01-11T14:38:44.587Z,7.60
2019-01-11T14:41:47.631Z,6.97
2019-01-11T14:44:45.301Z,6.40
2019-01-11T14:47:48.339Z,8.80
2019-01-11T14:50:52.143Z,5.95
2019-01-11T14:53:56.201Z,8.45
2019-01-11T14:56:58.985Z,5.70
2019-01-11T15:00:02.025Z,6.35
2019-01-11T15:03:05.322Z,6.05
2019-01-11T15:06:08.425Z,5.72
2019-01-11T15:09:12.170Z,6.17
2019-01-11T15:12:15.213Z,6.90
2019-01-11T15:18:35.627Z,7.42
2019-01-11T15:21:38.923Z,8.58
2019-01-11T15:24:41.963Z,5.95
2019-01-11T15:27:44.999Z,6.83
2019-01-11T15:30:48.043Z,6.33
2019-01-11T15:33:50.823Z,5.35
2019-01-11T15:36:54.120Z,7.83
2019-01-11T15:39:56.906Z,7.22
2019-01-11T15:43:01.233Z,5.85
2019-01-11T15:46:04.268Z,6.17
2019-01-11T15:49:07.050Z,7.40
2019-01-11T15:52:10.088Z,8.38
2019-01-11T15:55:13.129Z,5.55
2019-01-11T15:58:16.423Z,5.37
2019-01-11T16:01:19.208Z,8.95
2019-01-11T16:04:21.991Z,7.22
2019-01-11T16:07:39.112Z,7.58
2019-01-11T16:10:42.153Z,6.50
2019-01-11T16:13:45.192Z,7.30
2019-01-11T16:17:44.041Z,12.13
2019-01-11T16:20:47.084Z,8.73
2019-01-11T16:23:50.129Z,11.43
2019-01-11T16:26:53.162Z,11.35
2019-01-11T16:29:56.202Z,12.90
2019-01-11T16:32:59.246Z,8.13
2019-01-11T16:36:02.543Z,10.10
2019-01-11T16:39:05.580Z,10.18
2019-01-11T16:42:08.359Z,9.65
2019-01-11T16:45:11.659Z,12.73
2019-01-11T16:48:14.698Z,11.33
2019-01-11T16:51:17.742Z,10.58
2019-01-11T16:54:21.035Z,9.90
2019-01-11T16:57:24.846Z,9.65
2019-01-11T17:00:24.105Z,9.25
2019-01-11T17:03:26.837Z,8.80
2019-01-11T17:06:29.617Z,11.63
2019-01-11T17:09:32.929Z,10.28
2019-01-11T17:12:41.591Z,11.10
2019-01-11T17:15:38.985Z,8.50
2019-01-11T17:18:42.024Z,7.25
2019-01-11T17:21:45.065Z,11.73
2019-01-11T17:24:48.364Z,11.73
2019-01-11T17:27:51.400Z,10.50
2019-01-11T17:30:54.955Z,13.05
2019-01-11T17:33:57.994Z,8.38
2019-01-11T17:37:01.291Z,10.98
2019-01-11T17:40:04.587Z,10.98
2019-01-11T17:43:08.550Z,10.30
2019-01-11T17:46:11.435Z,12.73
2019-01-11T17:49:15.244Z,11.75
2019-01-11T17:52:19.310Z,12.23
2019-01-11T17:55:22.348Z,12.30
2019-01-11T17:58:25.643Z,13.50
2019-01-11T18:01:28.944Z,13.78
2019-01-11T18:04:31.979Z,12.55
2019-01-11T18:07:35.288Z,12.00
2019-01-11T18:10:38.571Z,12.35
2019-01-11T18:13:41.611Z,11.12
2019-01-11T18:16:45.418Z,13.48
2019-01-11T18:19:48.976Z,14.83
2019-01-11T18:22:52.012Z,12.20
2019-01-11T18:25:51.981Z,13.00
2019-01-11T18:28:54.772Z,12.28
2019-01-11T18:31:57.805Z,13.25
2019-01-11T18:35:01.109Z,11.18
2019-01-11T18:38:04.399Z,14.07
2019-01-11T18:41:08.725Z,11.65
2019-01-11T18:44:13.037Z,10.95
2019-01-11T18:47:16.076Z,12.25
2019-01-11T18:50:20.909Z,17.37
2019-01-11T18:53:23.949Z,10.88
2019-01-11T18:56:28.314Z,15.23
2019-01-11T18:59:32.347Z,12.98
2019-01-11T19:02:34.632Z,11.20
2019-01-11T19:05:37.918Z,10.53
2019-01-11T19:08:41.196Z,10.45
2019-01-11T19:11:44.240Z,9.85
2019-01-11T19:14:48.042Z,10.53
2019-01-11T19:17:51.122Z,12.20
2019-01-11T19:20:56.950Z,8.93
2019-01-11T19:24:00.236Z,10.45
2019-01-11T19:27:03.063Z,8.65
2019-01-11T19:30:06.827Z,10.55
2019-01-11T19:33:09.614Z,9.68
2019-01-11T19:36:12.392Z,9.00
2019-01-11T19:39:16.979Z,9.90
2019-01-11T19:42:20.279Z,10.65
2019-01-11T19:45:24.849Z,8.30
2019-01-11T19:48:28.136Z,8.70
2019-01-11T19:51:31.689Z,7.47
2019-01-11T19:54:34.492Z,7.53
2019-01-11T19:57:38.546Z,7.03
2019-01-11T20:00:41.848Z,6.90
2019-01-11T20:03:47.486Z,6.72
2019-01-11T20:06:51.255Z,7.20
2019-01-11T20:09:54.025Z,13.55
2019-01-11T20:12:57.066Z,7.45
2019-01-11T20:16:01.129Z,8.83
2019-01-11T20:19:04.171Z,9.28
2019-01-11T20:22:07.467Z,8.48
2019-01-11T20:25:10.769Z,6.75
2019-01-11T20:28:14.060Z,7.25
2019-01-11T20:31:17.109Z,7.37
2019-01-11T20:34:24.233Z,7.03
2019-01-11T20:37:27.279Z,7.10
2019-01-11T20:40:30.568Z,8.65
2019-01-11T20:43:33.613Z,8.78
2019-01-11T20:46:37.674Z,6.17
2019-01-11T20:49:40.969Z,9.55
2019-01-11T20:52:44.011Z,7.62
2019-01-11T20:55:47.059Z,13.50
2019-01-11T20:58:50.092Z,6.55
2019-01-11T21:01:53.129Z,9.18
2019-01-11T21:04:57.703Z,8.70
2019-01-11T21:08:00.743Z,6.22
2019-01-11T21:11:04.556Z,6.10
2019-01-11T21:14:09.644Z,10.15
2019-01-11T21:17:12.683Z,9.48
2019-01-11T21:20:15.723Z,6.80
2019-01-11T21:23:18.508Z,9.53
2019-01-11T21:26:21.802Z,9.75
2019-01-11T21:29:25.866Z,9.98
2019-01-11T21:32:30.210Z,8.55
2019-01-11T21:35:29.391Z,6.30
2019-01-11T21:38:34.475Z,5.45
2019-01-11T21:41:37.771Z,8.10
2019-01-11T21:44:40.561Z,5.22
2019-01-11T21:47:43.348Z,6.65
2019-01-11T21:50:46.891Z,5.35
2019-01-11T21:53:55.704Z,5.67
2019-01-11T21:56:53.223Z,7.92
2019-01-11T21:59:59.339Z,7.25
2019-01-11T22:03:02.120Z,6.62
2019-01-11T22:06:05.930Z,7.33
2019-01-11T22:09:09.516Z,6.95
2019-01-11T22:12:12.524Z,6.05
2019-01-11T22:15:15.564Z,7.25
2019-01-11T22:18:18.605Z,7.10
2019-01-11T22:21:21.642Z,6.72
2019-01-11T22:24:24.441Z,8.13
2019-01-11T22:27:27.464Z,5.58
2019-01-11T22:30:30.764Z,4.80
2019-01-11T22:33:42.779Z,6.75
2019-01-11T22:36:45.800Z,4.87
2019-01-11T22:39:48.586Z,4.47
2019-01-11T22:42:47.791Z,5.80
2019-01-11T22:45:46.992Z,6.75
2019-01-11T22:48:50.025Z,4.20
2019-01-11T22:51:53.841Z,7.60
2019-01-11T22:54:56.875Z,5.15
2019-01-11T22:57:59.658Z,4.20
2019-01-11T23:01:03.465Z,4.70
2019-01-11T23:04:07.784Z,5.00
2019-01-11T23:07:11.849Z,6.58
2019-01-11T23:10:15.146Z,4.37
2019-01-11T23:13:18.188Z,4.42
2019-01-11T23:16:21.221Z,4.35
2019-01-11T23:19:24.008Z,4.28
2019-01-11T23:22:26.794Z,5.42
2019-01-11T23:25:29.833Z,6.72
2019-01-11T23:28:32.872Z,5.12
2019-01-11T23:31:35.925Z,4.15
2019-01-11T23:34:38.696Z,5.37
2019-01-11T23:37:42.760Z,4.45
2019-01-11T23:40:46.055Z,4.92
2019-01-11T23:43:50.124Z,5.83
2019-01-11T23:46:53.673Z,5.35
2019-01-11T23:49:57.737Z,5.95
2019-01-11T23:53:00.776Z,8.68
2019-01-11T23:56:03.819Z,6.08
2019-01-11T23:59:07.629Z,6.62
